sensor_id;sensor_type;location;lat;lon;timestamp;P1;durP1;ratioP1;P2;durP2;ratioP2
20034;SDS011;10178;48.034;9.800;2022-08-18T00:01:40;2.75;;;2.55;;
20034;SDS011;10178;48.034;9.800;2022-08-18T00:04:08;3.92;;;3.17;;
20034;SDS011;10178;48.034;9.800;2022-08-18T00:06:35;3.70;;;3.40;;
20034;SDS011;10178;48.034;9.800;2022-08-18T00:09:03;5.60;;;4.15;;
20034;SDS011;10178;48.034;9.800;2022-08-18T00:11:32;3.92;;;3.33;;
20034;SDS011;10178;48.034;9.800;2022-08-18T00:14:03;3.00;;;2.78;;
20034;SDS011;10178;48.034;9.800;2022-08-18T00:16:29;3.55;;;3.13;;
20034;SDS011;10178;48.034;9.800;2022-08-18T00:18:55;2.97;;;2.75;;
20034;SDS011;10178;48.034;9.800;2022-08-18T00:21:21;4.05;;;3.38;;
20034;SDS011;10178;48.034;9.800;2022-08-18T00:23:47;2.92;;;2.72;;
20034;SDS011;10178;48.034;9.800;2022-08-18T00:26:12;6.90;;;3.97;;
20034;SDS011;10178;48.034;9.800;2022-08-18T00:28:38;4.70;;;3.55;;
20034;SDS011;10178;48.034;9.800;2022-08-18T00:31:04;5.13;;;4.63;;
20034;SDS011;10178;48.034;9.800;2022-08-18T00:33:30;3.28;;;3.08;;
20034;SDS011;10178;48.034;9.800;2022-08-18T00:35:56;4.38;;;3.92;;
20034;SDS011;10178;48.034;9.800;2022-08-18T00:38:21;4.03;;;3.28;;
20034;SDS011;10178;48.034;9.800;2022-08-18T00:40:48;5.70;;;4.68;;
20034;SDS011;10178;48.034;9.800;2022-08-18T00:43:51;5.43;;;3.92;;
20034;SDS011;10178;48.034;9.800;2022-08-18T00:46:14;4.28;;;3.88;;
20034;SDS011;10178;48.034;9.800;2022-08-18T00:48:45;4.22;;;3.83;;
20034;SDS011;10178;48.034;9.800;2022-08-18T00:51:17;3.45;;;3.15;;
20034;SDS011;10178;48.034;9.800;2022-08-18T00:53:47;4.80;;;3.83;;
20034;SDS011;10178;48.034;9.800;2022-08-18T00:56:18;3.25;;;2.95;;
20034;SDS011;10178;48.034;9.800;2022-08-18T00:58:51;4.03;;;3.15;;
20034;SDS011;10178;48.034;9.800;2022-08-18T01:01:22;3.28;;;2.97;;
20034;SDS011;10178;48.034;9.800;2022-08-18T01:03:51;7.88;;;4.95;;
20034;SDS011;10178;48.034;9.800;2022-08-18T01:06:49;3.63;;;3.33;;
20034;SDS011;10178;48.034;9.800;2022-08-18T01:09:18;3.72;;;3.40;;
20034;SDS011;10178;48.034;9.800;2022-08-18T01:11:44;3.80;;;3.40;;
20034;SDS011;10178;48.034;9.800;2022-08-18T01:14:11;6.30;;;4.40;;
20034;SDS011;10178;48.034;9.800;2022-08-18T01:16:40;4.35;;;3.60;;
20034;SDS011;10178;48.034;9.800;2022-08-18T01:19:25;3.58;;;3.10;;
20034;SDS011;10178;48.034;9.800;2022-08-18T01:22:20;3.58;;;3.28;;
20034;SDS011;10178;48.034;9.800;2022-08-18T01:24:46;4.03;;;3.30;;
20034;SDS011;10178;48.034;9.800;2022-08-18T01:27:32;3.53;;;3.08;;
20034;SDS011;10178;48.034;9.800;2022-08-18T01:30:02;3.97;;;3.47;;
20034;SDS011;10178;48.034;9.800;2022-08-18T01:32:29;4.30;;;3.15;;
20034;SDS011;10178;48.034;9.800;2022-08-18T01:34:55;4.30;;;3.50;;
20034;SDS011;10178;48.034;9.800;2022-08-18T01:37:21;3.28;;;2.97;;
20034;SDS011;10178;48.034;9.800;2022-08-18T01:39:48;3.35;;;3.05;;
20034;SDS011;10178;48.034;9.800;2022-08-18T01:42:15;4.80;;;4.28;;
20034;SDS011;10178;48.034;9.800;2022-08-18T01:44:42;3.67;;;3.38;;
20034;SDS011;10178;48.034;9.800;2022-08-18T01:47:12;4.88;;;3.40;;
20034;SDS011;10178;48.034;9.800;2022-08-18T01:49:39;4.10;;;3.70;;
20034;SDS011;10178;48.034;9.800;2022-08-18T01:52:17;5.15;;;3.67;;
20034;SDS011;10178;48.034;9.800;2022-08-18T01:54:45;3.20;;;2.95;;
20034;SDS011;10178;48.034;9.800;2022-08-18T01:57:11;5.68;;;3.58;;
20034;SDS011;10178;48.034;9.800;2022-08-18T01:59:39;5.97;;;3.78;;
20034;SDS011;10178;48.034;9.800;2022-08-18T02:02:06;3.63;;;3.33;;
20034;SDS011;10178;48.034;9.800;2022-08-18T02:04:33;3.58;;;3.28;;
20034;SDS011;10178;48.034;9.800;2022-08-18T02:07:00;5.32;;;3.40;;
20034;SDS011;10178;48.034;9.800;2022-08-18T02:09:30;4.57;;;3.45;;
20034;SDS011;10178;48.034;9.800;2022-08-18T02:11:55;4.47;;;3.40;;
20034;SDS011;10178;48.034;9.800;2022-08-18T02:14:21;4.53;;;3.97;;
20034;SDS011;10178;48.034;9.800;2022-08-18T02:16:47;3.58;;;3.28;;
20034;SDS011;10178;48.034;9.800;2022-08-18T02:19:13;3.67;;;3.38;;
20034;SDS011;10178;48.034;9.800;2022-08-18T02:21:39;7.13;;;5.80;;
20034;SDS011;10178;48.034;9.800;2022-08-18T02:24:04;3.67;;;3.38;;
20034;SDS011;10178;48.034;9.800;2022-08-18T02:26:30;3.75;;;3.33;;
20034;SDS011;10178;48.034;9.800;2022-08-18T02:28:56;3.42;;;3.13;;
20034;SDS011;10178;48.034;9.800;2022-08-18T02:31:23;3.97;;;3.60;;
20034;SDS011;10178;48.034;9.800;2022-08-18T02:33:49;3.45;;;3.15;;
20034;SDS011;10178;48.034;9.800;2022-08-18T02:36:15;5.00;;;4.07;;
20034;SDS011;10178;48.034;9.800;2022-08-18T02:38:41;3.35;;;3.05;;
20034;SDS011;10178;48.034;9.800;2022-08-18T02:41:08;3.90;;;3.47;;
20034;SDS011;10178;48.034;9.800;2022-08-18T02:43:35;3.97;;;3.67;;
20034;SDS011;10178;48.034;9.800;2022-08-18T02:46:02;4.65;;;3.80;;
20034;SDS011;10178;48.034;9.800;2022-08-18T02:48:28;4.78;;;4.28;;
20034;SDS011;10178;48.034;9.800;2022-08-18T02:51:04;6.40;;;5.07;;
20034;SDS011;10178;48.034;9.800;2022-08-18T02:53:39;5.47;;;4.30;;
20034;SDS011;10178;48.034;9.800;2022-08-18T02:56:10;8.48;;;4.60;;
20034;SDS011;10178;48.034;9.800;2022-08-18T02:58:50;5.68;;;3.97;;
20034;SDS011;10178;48.034;9.800;2022-08-18T03:01:21;3.45;;;3.15;;
20034;SDS011;10178;48.034;9.800;2022-08-18T03:03:53;3.85;;;3.42;;
20034;SDS011;10178;48.034;9.800;2022-08-18T03:06:21;3.92;;;3.50;;
20034;SDS011;10178;48.034;9.800;2022-08-18T03:08:47;3.78;;;3.47;;
20034;SDS011;10178;48.034;9.800;2022-08-18T03:11:18;3.90;;;3.58;;
20034;SDS011;10178;48.034;9.800;2022-08-18T03:13:49;5.15;;;3.55;;
20034;SDS011;10178;48.034;9.800;2022-08-18T03:16:15;4.85;;;3.55;;
20034;SDS011;10178;48.034;9.800;2022-08-18T03:18:41;3.38;;;3.13;;
20034;SDS011;10178;48.034;9.800;2022-08-18T03:21:09;4.32;;;3.42;;
20034;SDS011;10178;48.034;9.800;2022-08-18T03:23:37;3.53;;;3.25;;
20034;SDS011;10178;48.034;9.800;2022-08-18T03:26:07;4.47;;;3.53;;
20034;SDS011;10178;48.034;9.800;2022-08-18T03:28:36;5.22;;;3.28;;
20034;SDS011;10178;48.034;9.800;2022-08-18T03:31:02;5.93;;;5.30;;
20034;SDS011;10178;48.034;9.800;2022-08-18T03:33:28;4.40;;;4.00;;
20034;SDS011;10178;48.034;9.800;2022-08-18T03:35:54;3.70;;;3.40;;
20034;SDS011;10178;48.034;9.800;2022-08-18T03:38:19;4.60;;;3.47;;
20034;SDS011;10178;48.034;9.800;2022-08-18T03:40:51;7.07;;;2.92;;
20034;SDS011;10178;48.034;9.800;2022-08-18T03:43:17;5.32;;;3.50;;
20034;SDS011;10178;48.034;9.800;2022-08-18T03:45:43;3.55;;;3.25;;
20034;SDS011;10178;48.034;9.800;2022-08-18T03:48:10;3.90;;;3.35;;
20034;SDS011;10178;48.034;9.800;2022-08-18T03:50:36;3.88;;;3.20;;
20034;SDS011;10178;48.034;9.800;2022-08-18T03:53:02;5.82;;;3.30;;
20034;SDS011;10178;48.034;9.800;2022-08-18T03:55:29;3.20;;;2.63;;
20034;SDS011;10178;48.034;9.800;2022-08-18T03:57:58;4.80;;;3.47;;
20034;SDS011;10178;48.034;9.800;2022-08-18T04:00:27;5.40;;;3.45;;
20034;SDS011;10178;48.034;9.800;2022-08-18T04:02:57;5.22;;;3.28;;
20034;SDS011;10178;48.034;9.800;2022-08-18T04:05:25;3.20;;;3.00;;
20034;SDS011;10178;48.034;9.800;2022-08-18T04:07:52;11.93;;;3.67;;
20034;SDS011;10178;48.034;9.800;2022-08-18T04:10:18;3.45;;;3.15;;
20034;SDS011;10178;48.034;9.800;2022-08-18T04:12:44;3.00;;;2.80;;
20034;SDS011;10178;48.034;9.800;2022-08-18T04:15:10;3.55;;;3.05;;
20034;SDS011;10178;48.034;9.800;2022-08-18T04:17:36;3.28;;;2.95;;
20034;SDS011;10178;48.034;9.800;2022-08-18T04:20:02;3.22;;;2.92;;
20034;SDS011;10178;48.034;9.800;2022-08-18T04:22:28;3.58;;;3.28;;
20034;SDS011;10178;48.034;9.800;2022-08-18T04:24:57;7.55;;;3.45;;
20034;SDS011;10178;48.034;9.800;2022-08-18T04:27:25;3.25;;;2.95;;
20034;SDS011;10178;48.034;9.800;2022-08-18T04:29:51;3.58;;;3.17;;
20034;SDS011;10178;48.034;9.800;2022-08-18T04:32:20;3.25;;;2.95;;
20034;SDS011;10178;48.034;9.800;2022-08-18T04:34:47;2.78;;;2.58;;
20034;SDS011;10178;48.034;9.800;2022-08-18T04:37:12;3.45;;;2.85;;
20034;SDS011;10178;48.034;9.800;2022-08-18T04:39:39;4.35;;;2.75;;
20034;SDS011;10178;48.034;9.800;2022-08-18T04:42:06;3.15;;;2.60;;
20034;SDS011;10178;48.034;9.800;2022-08-18T04:44:32;3.08;;;2.50;;
20034;SDS011;10178;48.034;9.800;2022-08-18T04:47:01;3.25;;;2.95;;
20034;SDS011;10178;48.034;9.800;2022-08-18T04:49:27;3.30;;;2.78;;
20034;SDS011;10178;48.034;9.800;2022-08-18T04:51:55;4.50;;;2.75;;
20034;SDS011;10178;48.034;9.800;2022-08-18T04:54:40;3.17;;;2.90;;
20034;SDS011;10178;48.034;9.800;2022-08-18T04:57:16;3.30;;;3.00;;
20034;SDS011;10178;48.034;9.800;2022-08-18T04:59:45;4.07;;;3.03;;
20034;SDS011;10178;48.034;9.800;2022-08-18T05:02:12;3.17;;;2.92;;
20034;SDS011;10178;48.034;9.800;2022-08-18T05:04:39;4.30;;;3.15;;
20034;SDS011;10178;48.034;9.800;2022-08-18T05:07:07;5.18;;;3.10;;
20034;SDS011;10178;48.034;9.800;2022-08-18T05:09:35;3.17;;;2.88;;
20034;SDS011;10178;48.034;9.800;2022-08-18T05:12:02;3.38;;;3.08;;
20034;SDS011;10178;48.034;9.800;2022-08-18T05:14:29;5.20;;;3.50;;
20034;SDS011;10178;48.034;9.800;2022-08-18T05:17:02;4.50;;;2.78;;
20034;SDS011;10178;48.034;9.800;2022-08-18T05:19:28;4.05;;;3.00;;
20034;SDS011;10178;48.034;9.800;2022-08-18T05:21:55;3.88;;;3.50;;
20034;SDS011;10178;48.034;9.800;2022-08-18T05:24:22;3.30;;;3.00;;
20034;SDS011;10178;48.034;9.800;2022-08-18T05:26:49;4.07;;;3.15;;
20034;SDS011;10178;48.034;9.800;2022-08-18T05:29:16;2.97;;;2.78;;
20034;SDS011;10178;48.034;9.800;2022-08-18T05:31:42;6.40;;;5.80;;
20034;SDS011;10178;48.034;9.800;2022-08-18T05:34:09;3.42;;;3.13;;
20034;SDS011;10178;48.034;9.800;2022-08-18T05:41:51;9.75;;;5.18;;
20034;SDS011;10178;48.034;9.800;2022-08-18T05:44:32;5.45;;;4.00;;
20034;SDS011;10178;48.034;9.800;2022-08-18T05:47:05;7.22;;;4.63;;
20034;SDS011;10178;48.034;9.800;2022-08-18T05:49:42;5.50;;;4.00;;
20034;SDS011;10178;48.034;9.800;2022-08-18T05:52:15;6.38;;;4.00;;
20034;SDS011;10178;48.034;9.800;2022-08-18T05:54:48;8.00;;;3.65;;
20034;SDS011;10178;48.034;9.800;2022-08-18T05:57:42;4.07;;;3.58;;
20034;SDS011;10178;48.034;9.800;2022-08-18T06:00:15;5.05;;;3.70;;
20034;SDS011;10178;48.034;9.800;2022-08-18T06:02:50;3.70;;;3.40;;
20034;SDS011;10178;48.034;9.800;2022-08-18T06:05:34;3.88;;;3.47;;
20034;SDS011;10178;48.034;9.800;2022-08-18T06:08:03;6.47;;;4.28;;
20034;SDS011;10178;48.034;9.800;2022-08-18T06:10:37;4.30;;;3.22;;
20034;SDS011;10178;48.034;9.800;2022-08-18T06:13:11;4.70;;;3.97;;
20034;SDS011;10178;48.034;9.800;2022-08-18T06:29:35;4.78;;;3.60;;
20034;SDS011;10178;48.034;9.800;2022-08-18T06:32:14;7.22;;;4.25;;
20034;SDS011;10178;48.034;9.800;2022-08-18T06:39:58;4.85;;;4.25;;
20034;SDS011;10178;48.034;9.800;2022-08-18T06:42:26;8.48;;;4.30;;
20034;SDS011;10178;48.034;9.800;2022-08-18T06:45:02;4.68;;;4.05;;
20034;SDS011;10178;48.034;9.800;2022-08-18T06:52:56;5.13;;;4.63;;
20034;SDS011;10178;48.034;9.800;2022-08-18T06:55:34;6.32;;;4.60;;
20034;SDS011;10178;48.034;9.800;2022-08-18T06:58:19;4.10;;;3.70;;
20034;SDS011;10178;48.034;9.800;2022-08-18T07:03:15;4.80;;;4.35;;
20034;SDS011;10178;48.034;9.800;2022-08-18T07:08:50;5.53;;;4.70;;
20034;SDS011;10178;48.034;9.800;2022-08-18T07:11:28;10.07;;;9.05;;
20034;SDS011;10178;48.034;9.800;2022-08-18T07:13:58;7.15;;;4.18;;
20034;SDS011;10178;48.034;9.800;2022-08-18T07:16:48;5.72;;;4.95;;
20034;SDS011;10178;48.034;9.800;2022-08-18T07:19:17;10.52;;;9.23;;
20034;SDS011;10178;48.034;9.800;2022-08-18T07:22:04;6.82;;;4.20;;
20034;SDS011;10178;48.034;9.800;2022-08-18T07:24:49;4.65;;;4.25;;
20034;SDS011;10178;48.034;9.800;2022-08-18T07:27:37;4.80;;;4.30;;
20034;SDS011;10178;48.034;9.800;2022-08-18T07:30:13;4.75;;;4.35;;
20034;SDS011;10178;48.034;9.800;2022-08-18T07:32:53;4.40;;;4.00;;
20034;SDS011;10178;48.034;9.800;2022-08-18T07:35:29;4.90;;;4.50;;
20034;SDS011;10178;48.034;9.800;2022-08-18T07:40:57;11.43;;;10.18;;
20034;SDS011;10178;48.034;9.800;2022-08-18T07:46:00;4.15;;;3.80;;
20034;SDS011;10178;48.034;9.800;2022-08-18T07:48:31;5.30;;;4.72;;
20034;SDS011;10178;48.034;9.800;2022-08-18T07:51:43;6.40;;;4.20;;
20034;SDS011;10178;48.034;9.800;2022-08-18T07:54:01;4.15;;;3.85;;
20034;SDS011;10178;48.034;9.800;2022-08-18T07:57:01;4.63;;;4.22;;
20034;SDS011;10178;48.034;9.800;2022-08-18T07:59:59;5.35;;;4.65;;
20034;SDS011;10178;48.034;9.800;2022-08-18T08:08:01;4.43;;;4.03;;
20034;SDS011;10178;48.034;9.800;2022-08-18T08:10:42;4.60;;;4.18;;
20034;SDS011;10178;48.034;9.800;2022-08-18T08:21:27;4.95;;;4.05;;
20034;SDS011;10178;48.034;9.800;2022-08-18T08:29:56;4.93;;;4.47;;
20034;SDS011;10178;48.034;9.800;2022-08-18T08:32:29;5.22;;;3.90;;
20034;SDS011;10178;48.034;9.800;2022-08-18T08:35:10;5.38;;;4.00;;
20034;SDS011;10178;48.034;9.800;2022-08-18T08:37:47;5.47;;;4.15;;
20034;SDS011;10178;48.034;9.800;2022-08-18T08:40:22;4.65;;;4.10;;
20034;SDS011;10178;48.034;9.800;2022-08-18T08:45:33;6.22;;;4.60;;
20034;SDS011;10178;48.034;9.800;2022-08-18T08:48:22;10.63;;;9.57;;
20034;SDS011;10178;48.034;9.800;2022-08-18T08:51:05;5.13;;;4.63;;
20034;SDS011;10178;48.034;9.800;2022-08-18T08:54:01;4.70;;;4.30;;
20034;SDS011;10178;48.034;9.800;2022-08-18T08:56:34;10.70;;;7.55;;
20034;SDS011;10178;48.034;9.800;2022-08-18T08:59:06;4.55;;;4.15;;
20034;SDS011;10178;48.034;9.800;2022-08-18T09:04:38;4.65;;;4.18;;
20034;SDS011;10178;48.034;9.800;2022-08-18T09:18:13;4.40;;;4.07;;
20034;SDS011;10178;48.034;9.800;2022-08-18T09:23:42;5.55;;;4.45;;
20034;SDS011;10178;48.034;9.800;2022-08-18T09:29:12;4.60;;;4.20;;
20034;SDS011;10178;48.034;9.800;2022-08-18T09:31:41;12.23;;;11.07;;
20034;SDS011;10178;48.034;9.800;2022-08-18T09:37:11;12.95;;;9.07;;
20034;SDS011;10178;48.034;9.800;2022-08-18T09:39:52;5.13;;;4.35;;
20034;SDS011;10178;48.034;9.800;2022-08-18T09:42:53;5.38;;;4.63;;
20034;SDS011;10178;48.034;9.800;2022-08-18T09:45:54;5.68;;;4.82;;
20034;SDS011;10178;48.034;9.800;2022-08-18T09:48:22;5.47;;;4.20;;
20034;SDS011;10178;48.034;9.800;2022-08-18T09:50:55;5.03;;;4.47;;
20034;SDS011;10178;48.034;9.800;2022-08-18T10:02:02;5.03;;;4.40;;
20034;SDS011;10178;48.034;9.800;2022-08-18T10:15:31;6.80;;;6.20;;
20034;SDS011;10178;48.034;9.800;2022-08-18T10:31:28;5.47;;;4.25;;
20034;SDS011;10178;48.034;9.800;2022-08-18T10:34:07;8.23;;;6.00;;
20034;SDS011;10178;48.034;9.800;2022-08-18T10:40:17;6.15;;;4.15;;
20034;SDS011;10178;48.034;9.800;2022-08-18T10:42:19;7.05;;;4.80;;
20034;SDS011;10178;48.034;9.800;2022-08-18T10:44:47;5.25;;;4.82;;
20034;SDS011;10178;48.034;9.800;2022-08-18T10:47:34;7.57;;;6.80;;
20034;SDS011;10178;48.034;9.800;2022-08-18T10:50:02;7.13;;;4.78;;
20034;SDS011;10178;48.034;9.800;2022-08-18T10:55:30;9.27;;;8.20;;
20034;SDS011;10178;48.034;9.800;2022-08-18T11:06:07;6.28;;;4.82;;
20034;SDS011;10178;48.034;9.800;2022-08-18T11:08:41;5.72;;;5.20;;
20034;SDS011;10178;48.034;9.800;2022-08-18T11:11:10;5.97;;;5.30;;
20034;SDS011;10178;48.034;9.800;2022-08-18T11:19:05;4.93;;;4.43;;
20034;SDS011;10178;48.034;9.800;2022-08-18T11:26:38;4.78;;;4.38;;
20034;SDS011;10178;48.034;9.800;2022-08-18T11:34:38;5.15;;;4.75;;
20034;SDS011;10178;48.034;9.800;2022-08-18T11:40:00;4.72;;;4.32;;
20034;SDS011;10178;48.034;9.800;2022-08-18T11:42:31;6.10;;;5.50;;
20034;SDS011;10178;48.034;9.800;2022-08-18T11:53:24;5.35;;;4.85;;
20034;SDS011;10178;48.034;9.800;2022-08-18T12:06:56;5.55;;;5.05;;
20034;SDS011;10178;48.034;9.800;2022-08-18T12:09:34;5.57;;;4.40;;
20034;SDS011;10178;48.034;9.800;2022-08-18T12:17:22;4.47;;;4.07;;
20034;SDS011;10178;48.034;9.800;2022-08-18T12:19:49;7.43;;;5.97;;
20034;SDS011;10178;48.034;9.800;2022-08-18T12:22:20;5.10;;;4.57;;
20034;SDS011;10178;48.034;9.800;2022-08-18T12:24:47;5.53;;;5.03;;
20034;SDS011;10178;48.034;9.800;2022-08-18T12:27:15;7.93;;;5.13;;
20034;SDS011;10178;48.034;9.800;2022-08-18T12:29:42;5.50;;;4.60;;
20034;SDS011;10178;48.034;9.800;2022-08-18T12:32:09;5.40;;;4.88;;
20034;SDS011;10178;48.034;9.800;2022-08-18T12:34:35;5.93;;;4.90;;
20034;SDS011;10178;48.034;9.800;2022-08-18T12:37:02;4.80;;;4.35;;
20034;SDS011;10178;48.034;9.800;2022-08-18T12:39:29;6.13;;;4.47;;
20034;SDS011;10178;48.034;9.800;2022-08-18T12:41:55;6.25;;;4.63;;
20034;SDS011;10178;48.034;9.800;2022-08-18T12:44:22;5.32;;;4.60;;
20034;SDS011;10178;48.034;9.800;2022-08-18T12:46:48;4.85;;;4.45;;
20034;SDS011;10178;48.034;9.800;2022-08-18T12:49:18;6.35;;;5.03;;
20034;SDS011;10178;48.034;9.800;2022-08-18T12:51:45;4.93;;;4.53;;
20034;SDS011;10178;48.034;9.800;2022-08-18T12:54:12;5.00;;;4.50;;
20034;SDS011;10178;48.034;9.800;2022-08-18T12:56:38;9.13;;;5.63;;
20034;SDS011;10178;48.034;9.800;2022-08-18T12:59:06;9.23;;;6.22;;
20034;SDS011;10178;48.034;9.800;2022-08-18T13:01:34;5.43;;;4.78;;
20034;SDS011;10178;48.034;9.800;2022-08-18T13:04:02;5.10;;;4.60;;
20034;SDS011;10178;48.034;9.800;2022-08-18T13:06:28;4.90;;;4.50;;
20034;SDS011;10178;48.034;9.800;2022-08-18T13:08:55;5.45;;;4.75;;
20034;SDS011;10178;48.034;9.800;2022-08-18T13:11:21;5.00;;;4.50;;
20034;SDS011;10178;48.034;9.800;2022-08-18T13:13:48;5.47;;;4.97;;
20034;SDS011;10178;48.034;9.800;2022-08-18T13:16:14;9.57;;;7.75;;
20034;SDS011;10178;48.034;9.800;2022-08-18T13:18:41;5.43;;;4.93;;
20034;SDS011;10178;48.034;9.800;2022-08-18T13:21:08;5.72;;;4.68;;
20034;SDS011;10178;48.034;9.800;2022-08-18T13:23:35;5.80;;;5.28;;
20034;SDS011;10178;48.034;9.800;2022-08-18T13:26:01;5.47;;;5.00;;
20034;SDS011;10178;48.034;9.800;2022-08-18T13:28:29;5.45;;;4.88;;
20034;SDS011;10178;48.034;9.800;2022-08-18T13:30:56;5.90;;;5.30;;
20034;SDS011;10178;48.034;9.800;2022-08-18T13:33:22;11.73;;;7.70;;
20034;SDS011;10178;48.034;9.800;2022-08-18T13:35:48;6.30;;;5.70;;
20034;SDS011;10178;48.034;9.800;2022-08-18T13:38:15;8.00;;;7.28;;
20034;SDS011;10178;48.034;9.800;2022-08-18T13:40:44;7.13;;;5.88;;
20034;SDS011;10178;48.034;9.800;2022-08-18T13:43:15;5.80;;;5.20;;
20034;SDS011;10178;48.034;9.800;2022-08-18T13:45:41;6.18;;;5.68;;
20034;SDS011;10178;48.034;9.800;2022-08-18T13:48:08;6.53;;;5.93;;
20034;SDS011;10178;48.034;9.800;2022-08-18T13:50:34;7.22;;;6.20;;
20034;SDS011;10178;48.034;9.800;2022-08-18T13:53:04;7.93;;;6.55;;
20034;SDS011;10178;48.034;9.800;2022-08-18T13:55:30;8.82;;;7.93;;
20034;SDS011;10178;48.034;9.800;2022-08-18T13:57:56;10.68;;;8.55;;
20034;SDS011;10178;48.034;9.800;2022-08-18T14:00:22;7.68;;;5.95;;
20034;SDS011;10178;48.034;9.800;2022-08-18T14:02:49;7.28;;;6.30;;
20034;SDS011;10178;48.034;9.800;2022-08-18T14:05:18;6.40;;;5.88;;
20034;SDS011;10178;48.034;9.800;2022-08-18T14:07:44;6.50;;;6.00;;
20034;SDS011;10178;48.034;9.800;2022-08-18T14:10:10;7.22;;;6.28;;
20034;SDS011;10178;48.034;9.800;2022-08-18T14:12:37;9.70;;;6.50;;
20034;SDS011;10178;48.034;9.800;2022-08-18T14:15:05;8.18;;;6.97;;
20034;SDS011;10178;48.034;9.800;2022-08-18T14:17:32;11.35;;;6.53;;
20034;SDS011;10178;48.034;9.800;2022-08-18T14:20:00;7.40;;;6.65;;
20034;SDS011;10178;48.034;9.800;2022-08-18T14:22:44;7.32;;;6.72;;
20034;SDS011;10178;48.034;9.800;2022-08-18T14:25:29;6.43;;;5.82;;
20034;SDS011;10178;48.034;9.800;2022-08-18T14:28:13;7.47;;;6.78;;
20034;SDS011;10178;48.034;9.800;2022-08-18T14:30:42;6.78;;;6.20;;
20034;SDS011;10178;48.034;9.800;2022-08-18T14:33:09;10.27;;;9.20;;
20034;SDS011;10178;48.034;9.800;2022-08-18T14:35:35;10.57;;;8.13;;
20034;SDS011;10178;48.034;9.800;2022-08-18T14:38:01;9.68;;;7.88;;
20034;SDS011;10178;48.034;9.800;2022-08-18T14:40:28;7.22;;;6.63;;
20034;SDS011;10178;48.034;9.800;2022-08-18T14:42:55;7.57;;;6.88;;
20034;SDS011;10178;48.034;9.800;2022-08-18T14:45:22;11.30;;;8.00;;
20034;SDS011;10178;48.034;9.800;2022-08-18T14:47:49;7.38;;;6.78;;
20034;SDS011;10178;48.034;9.800;2022-08-18T14:50:18;14.45;;;7.32;;
20034;SDS011;10178;48.034;9.800;2022-08-18T14:52:48;9.30;;;7.30;;
20034;SDS011;10178;48.034;9.800;2022-08-18T14:55:14;10.25;;;6.82;;
20034;SDS011;10178;48.034;9.800;2022-08-18T14:57:41;6.72;;;6.13;;
20034;SDS011;10178;48.034;9.800;2022-08-18T15:00:08;8.10;;;6.35;;
20034;SDS011;10178;48.034;9.800;2022-08-18T15:02:37;6.68;;;6.03;;
20034;SDS011;10178;48.034;9.800;2022-08-18T15:05:07;6.78;;;5.80;;
20034;SDS011;10178;48.034;9.800;2022-08-18T15:07:34;8.70;;;6.22;;
20034;SDS011;10178;48.034;9.800;2022-08-18T15:10:02;6.03;;;5.50;;
20034;SDS011;10178;48.034;9.800;2022-08-18T15:12:29;18.45;;;6.45;;
20034;SDS011;10178;48.034;9.800;2022-08-18T15:14:55;9.52;;;5.88;;
20034;SDS011;10178;48.034;9.800;2022-08-18T15:17:23;7.00;;;6.30;;
20034;SDS011;10178;48.034;9.800;2022-08-18T15:19:50;7.03;;;5.82;;
20034;SDS011;10178;48.034;9.800;2022-08-18T15:22:17;6.75;;;6.05;;
20034;SDS011;10178;48.034;9.800;2022-08-18T15:25:01;6.55;;;5.85;;
20034;SDS011;10178;48.034;9.800;2022-08-18T15:27:46;7.22;;;6.45;;
20034;SDS011;10178;48.034;9.800;2022-08-18T15:30:13;7.57;;;6.10;;
20034;SDS011;10178;48.034;9.800;2022-08-18T15:32:40;8.65;;;7.75;;
20034;SDS011;10178;48.034;9.800;2022-08-18T15:35:07;9.30;;;8.30;;
20034;SDS011;10178;48.034;9.800;2022-08-18T15:37:34;8.23;;;7.32;;
20034;SDS011;10178;48.034;9.800;2022-08-18T15:40:14;10.77;;;7.00;;
20034;SDS011;10178;48.034;9.800;2022-08-18T15:42:45;6.45;;;5.85;;
20034;SDS011;10178;48.034;9.800;2022-08-18T15:45:19;6.18;;;5.68;;
20034;SDS011;10178;48.034;9.800;2022-08-18T15:47:50;6.95;;;6.18;;
20034;SDS011;10178;48.034;9.800;2022-08-18T15:50:17;10.07;;;9.05;;
20034;SDS011;10178;48.034;9.800;2022-08-18T15:55:23;12.90;;;9.82;;
20034;SDS011;10178;48.034;9.800;2022-08-18T15:57:50;11.32;;;10.30;;
20034;SDS011;10178;48.034;9.800;2022-08-18T16:00:17;12.05;;;10.75;;
20034;SDS011;10178;48.034;9.800;2022-08-18T16:02:54;13.25;;;11.32;;
20034;SDS011;10178;48.034;9.800;2022-08-18T16:05:24;14.15;;;12.48;;
20034;SDS011;10178;48.034;9.800;2022-08-18T16:07:51;13.82;;;12.02;;
20034;SDS011;10178;48.034;9.800;2022-08-18T16:10:20;14.25;;;12.70;;
20034;SDS011;10178;48.034;9.800;2022-08-18T16:12:48;9.80;;;8.07;;
20034;SDS011;10178;48.034;9.800;2022-08-18T16:15:19;8.10;;;7.40;;
20034;SDS011;10178;48.034;9.800;2022-08-18T16:17:48;13.52;;;12.13;;
20034;SDS011;10178;48.034;9.800;2022-08-18T16:20:15;15.70;;;14.02;;
20034;SDS011;10178;48.034;9.800;2022-08-18T16:22:43;14.18;;;12.85;;
20034;SDS011;10178;48.034;9.800;2022-08-18T16:25:10;15.68;;;14.10;;
20034;SDS011;10178;48.034;9.800;2022-08-18T16:27:36;16.70;;;13.90;;
20034;SDS011;10178;48.034;9.800;2022-08-18T16:30:05;11.10;;;10.07;;
20034;SDS011;10178;48.034;9.800;2022-08-18T16:32:33;17.80;;;13.45;;
20034;SDS011;10178;48.034;9.800;2022-08-18T16:35:00;10.50;;;9.35;;
20034;SDS011;10178;48.034;9.800;2022-08-18T16:37:25;10.68;;;9.50;;
20034;SDS011;10178;48.034;9.800;2022-08-18T16:39:52;14.50;;;12.93;;
20034;SDS011;10178;48.034;9.800;2022-08-18T16:42:18;13.75;;;12.35;;
20034;SDS011;10178;48.034;9.800;2022-08-18T16:44:44;9.15;;;8.35;;
20034;SDS011;10178;48.034;9.800;2022-08-18T16:47:10;8.23;;;7.53;;
20034;SDS011;10178;48.034;9.800;2022-08-18T16:49:38;9.55;;;8.60;;
20034;SDS011;10178;48.034;9.800;2022-08-18T16:52:12;7.47;;;6.88;;
20034;SDS011;10178;48.034;9.800;2022-08-18T16:54:38;9.88;;;6.85;;
20034;SDS011;10178;48.034;9.800;2022-08-18T16:57:05;7.40;;;6.70;;
20034;SDS011;10178;48.034;9.800;2022-08-18T16:59:30;14.35;;;11.30;;
20034;SDS011;10178;48.034;9.800;2022-08-18T17:02:14;9.18;;;6.88;;
20034;SDS011;10178;48.034;9.800;2022-08-18T17:05:00;7.05;;;6.40;;
20034;SDS011;10178;48.034;9.800;2022-08-18T17:07:31;7.40;;;6.70;;
20034;SDS011;10178;48.034;9.800;2022-08-18T17:09:58;6.43;;;5.82;;
20034;SDS011;10178;48.034;9.800;2022-08-18T17:12:25;7.25;;;6.50;;
20034;SDS011;10178;48.034;9.800;2022-08-18T17:14:51;8.07;;;7.28;;
20034;SDS011;10178;48.034;9.800;2022-08-18T17:17:18;14.40;;;12.07;;
20034;SDS011;10178;48.034;9.800;2022-08-18T17:19:45;12.10;;;10.90;;
20034;SDS011;10178;48.034;9.800;2022-08-18T17:22:12;9.75;;;8.75;;
20034;SDS011;10178;48.034;9.800;2022-08-18T17:24:38;9.65;;;8.75;;
20034;SDS011;10178;48.034;9.800;2022-08-18T17:29:58;10.52;;;9.32;;
20034;SDS011;10178;48.034;9.800;2022-08-18T17:35:42;11.05;;;9.95;;
20034;SDS011;10178;48.034;9.800;2022-08-18T17:38:19;10.70;;;9.70;;
20034;SDS011;10178;48.034;9.800;2022-08-18T17:43:29;12.02;;;10.20;;
20034;SDS011;10178;48.034;9.800;2022-08-18T17:46:00;8.50;;;7.70;;
20034;SDS011;10178;48.034;9.800;2022-08-18T17:48:41;9.45;;;8.43;;
20034;SDS011;10178;48.034;9.800;2022-08-18T17:51:17;11.60;;;10.50;;
20034;SDS011;10178;48.034;9.800;2022-08-18T17:54:06;10.65;;;9.60;;
20034;SDS011;10178;48.034;9.800;2022-08-18T17:59:39;8.73;;;7.90;;
20034;SDS011;10178;48.034;9.800;2022-08-18T18:02:12;6.22;;;5.72;;
20034;SDS011;10178;48.034;9.800;2022-08-18T18:04:41;6.05;;;5.45;;
20034;SDS011;10178;48.034;9.800;2022-08-18T18:18:53;6.72;;;6.15;;
20034;SDS011;10178;48.034;9.800;2022-08-18T18:21:21;5.10;;;4.60;;
20034;SDS011;10178;48.034;9.800;2022-08-18T18:26:34;4.38;;;4.07;;
20034;SDS011;10178;48.034;9.800;2022-08-18T18:29:19;5.20;;;4.80;;
20034;SDS011;10178;48.034;9.800;2022-08-18T18:34:33;4.20;;;3.90;;